createdAt,value
2018-06-25T00:00:07.436Z,12.07
2018-06-25T00:02:42.141Z,8.30
2018-06-25T00:09:49.844Z,8.80
2018-06-25T00:12:30.924Z,7.13
2018-06-25T00:15:01.496Z,6.53
2018-06-25T00:17:36.999Z,9.77
2018-06-25T00:20:11.688Z,11.07
2018-06-25T00:22:42.333Z,6.90
2018-06-25T00:25:14.444Z,8.20
2018-06-25T00:27:45.767Z,9.53
2018-06-25T00:30:19.848Z,9.00
2018-06-25T00:32:50.612Z,11.77
2018-06-25T00:35:56.429Z,7.60
2018-06-25T00:38:29.324Z,9.77
2018-06-25T00:41:04.837Z,8.00
2018-06-25T00:43:36.283Z,7.53
2018-06-25T00:46:36.940Z,9.43
2018-06-25T00:49:07.968Z,9.93
2018-06-25T00:51:46.165Z,7.90
2018-06-25T00:54:19.455Z,8.30
2018-06-25T00:56:50.370Z,8.53
2018-06-25T01:05:25.493Z,9.47
2018-06-25T01:08:06.413Z,10.57
2018-06-25T01:11:48.314Z,11.40
2018-06-25T01:14:47.596Z,15.03
2018-06-25T01:18:05.284Z,10.87
2018-06-25T01:21:19.627Z,13.73
2018-06-25T01:23:53.237Z,12.77
2018-06-25T01:26:26.823Z,12.60
2018-06-25T01:28:57.280Z,14.50
2018-06-25T01:31:29.163Z,12.13
2018-06-25T01:34:01.057Z,11.83
2018-06-25T01:36:32.919Z,15.53
2018-06-25T01:39:06.937Z,15.00
2018-06-25T01:41:37.889Z,16.70
2018-06-25T01:44:08.089Z,14.43
2018-06-25T01:46:40.234Z,14.10
2018-06-25T01:49:12.220Z,17.73
2018-06-25T01:52:20.820Z,16.67
2018-06-25T01:54:51.049Z,17.77
2018-06-25T01:57:23.239Z,15.63
2018-06-25T02:00:00.152Z,17.23
2018-06-25T02:02:30.916Z,15.00
2018-06-25T02:05:03.486Z,14.10
2018-06-25T02:07:34.596Z,16.73
2018-06-25T02:10:06.360Z,14.93
2018-06-25T02:12:39.765Z,15.03
2018-06-25T02:15:11.404Z,17.37
2018-06-25T02:17:55.537Z,16.40
2018-06-25T02:20:26.129Z,17.03
2018-06-25T02:23:00.183Z,17.60
2018-06-25T02:26:10.377Z,17.33
2018-06-25T02:28:42.553Z,16.83
2018-06-25T02:31:27.933Z,17.97
2018-06-25T03:19:23.580Z,13.40
2018-06-25T03:24:53.576Z,9.83
2018-06-25T03:28:05.239Z,12.00
2018-06-25T03:31:04.720Z,10.93
2018-06-25T03:33:46.288Z,10.37
2018-06-25T03:36:17.508Z,12.90
2018-06-25T03:39:40.784Z,10.90
2018-06-25T03:45:27.362Z,10.87
2018-06-25T03:48:06.401Z,15.10
2018-06-25T03:50:47.363Z,10.43
2018-06-25T03:53:21.903Z,10.83
2018-06-25T03:55:52.439Z,11.20
2018-06-25T03:58:31.131Z,11.97
2018-06-25T04:07:02.653Z,11.63
2018-06-25T04:09:40.179Z,10.30
2018-06-25T04:12:16.747Z,9.00
2018-06-25T04:23:15.961Z,10.00
2018-06-25T04:25:48.324Z,12.00
2018-06-25T04:28:21.299Z,10.30
2018-06-25T04:30:52.745Z,10.70
2018-06-25T04:33:30.881Z,9.60
2018-06-25T04:36:06.497Z,10.80
2018-06-25T04:41:58.099Z,10.37
2018-06-25T04:44:31.616Z,11.23
2018-06-25T04:47:08.233Z,13.33
2018-06-25T04:49:46.044Z,11.70
2018-06-25T04:52:18.973Z,12.10
2018-06-25T04:54:57.316Z,12.73
2018-06-25T04:57:29.968Z,9.20
2018-06-25T05:00:01.844Z,13.47
2018-06-25T05:02:36.504Z,12.20
2018-06-25T05:05:08.364Z,16.07
2018-06-25T05:07:38.308Z,12.80
2018-06-25T05:10:10.669Z,11.23
2018-06-25T05:15:50.632Z,11.73
2018-06-25T05:29:23.130Z,8.40
2018-06-25T05:33:29.665Z,14.43
2018-06-25T05:36:00.484Z,13.47
2018-06-25T05:38:45.455Z,11.40
2018-06-25T05:41:20.180Z,12.50
2018-06-25T05:43:52.348Z,10.20
2018-06-25T05:46:23.527Z,10.67
2018-06-25T05:48:59.226Z,13.47
2018-06-25T05:51:30.485Z,12.65
2018-06-25T05:54:04.654Z,14.87
2018-06-25T06:00:43.799Z,10.68
2018-06-25T06:05:30.649Z,10.17
2018-06-25T06:08:01.521Z,12.73
2018-06-25T06:10:33.781Z,10.47
2018-06-25T06:13:08.064Z,11.73
2018-06-25T06:15:40.505Z,11.83
2018-06-25T06:18:16.580Z,10.37
2018-06-25T06:20:48.822Z,10.47
2018-06-25T06:23:40.036Z,14.43
2018-06-25T06:26:59.931Z,13.83
2018-06-25T06:29:31.965Z,12.10
2018-06-25T06:32:09.565Z,15.78
2018-06-25T06:34:44.476Z,16.95
2018-06-25T06:37:16.961Z,14.60
2018-06-25T06:40:00.375Z,11.37
2018-06-25T06:42:56.269Z,15.30
2018-06-25T06:45:30.303Z,14.27
2018-06-25T06:48:01.563Z,11.73
2018-06-25T06:50:37.900Z,11.77
2018-06-25T06:53:09.396Z,8.93
2018-06-25T06:55:43.941Z,9.73
2018-06-25T06:58:17.794Z,11.57
2018-06-25T07:03:45.881Z,8.77
2018-06-25T07:06:18.107Z,9.67
2018-06-25T07:08:50.720Z,9.20
2018-06-25T07:11:24.299Z,7.33
2018-06-25T07:13:58.240Z,7.43
2018-06-25T07:16:31.304Z,7.43
2018-06-25T07:20:10.630Z,8.27
2018-06-25T07:25:45.403Z,7.43
2018-06-25T07:29:23.553Z,7.60
2018-06-25T07:31:59.394Z,14.33
2018-06-25T07:35:40.488Z,16.17
2018-06-25T07:38:34.531Z,15.03
2018-06-25T07:41:48.141Z,14.63
2018-06-25T07:50:26.602Z,16.80
2018-06-25T08:04:29.010Z,25.00
2018-06-25T08:07:01.135Z,26.53
2018-06-25T08:09:34.610Z,33.07
2018-06-25T08:20:34.555Z,32.42
2018-06-25T08:23:11.466Z,35.73
2018-06-25T08:25:47.344Z,34.87
2018-06-25T08:29:08.323Z,36.37
2018-06-25T08:32:42.023Z,29.90
2018-06-25T08:43:07.651Z,29.70
2018-06-25T08:45:41.023Z,29.32
2018-06-25T08:48:14.361Z,30.87
2018-06-25T08:50:50.646Z,32.47
2018-06-25T08:53:27.441Z,35.45
2018-06-25T08:56:02.199Z,32.87
2018-06-25T08:58:34.259Z,30.67
2018-06-25T09:01:09.096Z,26.10
2018-06-25T09:03:46.629Z,27.20
2018-06-25T09:06:43.473Z,26.00
2018-06-25T09:09:18.941Z,26.67
2018-06-25T09:11:55.891Z,23.30
2018-06-25T09:14:36.610Z,21.93
2018-06-25T09:17:13.713Z,22.57
2018-06-25T09:19:46.270Z,18.07
2018-06-25T09:22:18.661Z,20.83
2018-06-25T09:24:53.787Z,22.83
2018-06-25T09:27:28.682Z,21.90
2018-06-25T09:32:45.178Z,20.93
2018-06-25T09:35:17.166Z,23.70
2018-06-25T09:37:55.007Z,22.10
2018-06-25T09:40:33.024Z,23.05
2018-06-25T09:43:07.253Z,20.65
2018-06-25T09:45:48.228Z,20.27
2018-06-25T09:48:20.678Z,21.40
2018-06-25T09:50:56.671Z,21.80
2018-06-25T09:53:27.697Z,22.25
2018-06-25T09:56:02.243Z,20.37
2018-06-25T09:58:40.965Z,23.00
2018-06-25T10:01:12.813Z,20.17
2018-06-25T10:04:09.582Z,22.27
2018-06-25T10:06:45.928Z,23.32
2018-06-25T10:09:21.884Z,28.47
2018-06-25T10:11:54.653Z,25.40
2018-06-25T10:14:28.261Z,22.63
2018-06-25T10:17:02.874Z,24.13
2018-06-25T10:19:33.878Z,25.57
2018-06-25T10:22:06.785Z,26.60
2018-06-25T10:24:39.462Z,23.50
2018-06-25T10:27:11.136Z,27.13
2018-06-25T10:29:42.598Z,21.77
2018-06-25T10:32:26.631Z,23.07
2018-06-25T10:34:58.816Z,22.63
2018-06-25T10:37:32.695Z,25.50
2018-06-25T10:40:13.785Z,24.67
2018-06-25T10:42:58.732Z,22.50
2018-06-25T10:45:37.467Z,24.90
2018-06-25T10:48:13.843Z,26.67
2018-06-25T10:50:48.046Z,28.03
2018-06-25T10:53:27.309Z,25.43
2018-06-25T10:56:00.511Z,28.27
2018-06-25T10:58:39.141Z,24.97
2018-06-25T11:01:14.891Z,26.17
2018-06-25T11:03:50.981Z,25.57
2018-06-25T11:06:26.572Z,28.63
2018-06-25T11:08:59.095Z,26.53
2018-06-25T11:11:30.921Z,23.13
2018-06-25T11:14:04.052Z,26.17
2018-06-25T11:16:38.368Z,24.37
2018-06-25T11:19:14.520Z,25.97
2018-06-25T11:21:48.758Z,29.83
2018-06-25T11:27:09.786Z,27.57
2018-06-25T11:29:41.449Z,27.73
2018-06-25T11:32:14.722Z,30.90
2018-06-25T11:34:52.610Z,29.33
2018-06-25T11:37:26.809Z,31.33
2018-06-25T11:40:01.189Z,29.80
2018-06-25T11:42:36.303Z,27.50
2018-06-25T11:45:16.977Z,24.63
2018-06-25T11:47:50.716Z,28.80
2018-06-25T11:50:25.793Z,27.23
2018-06-25T11:53:03.595Z,24.37
2018-06-25T11:55:37.872Z,29.07
2018-06-25T11:58:11.466Z,28.00
2018-06-25T12:00:59.364Z,28.37
2018-06-25T12:03:38.088Z,28.47
2018-06-25T12:06:13.238Z,27.48
2018-06-25T12:08:52.487Z,27.87
2018-06-25T12:11:32.214Z,26.77
2018-06-25T12:14:10.242Z,26.83
2018-06-25T12:16:47.709Z,29.77
2018-06-25T12:19:24.582Z,24.53
2018-06-25T12:22:02.441Z,27.03
2018-06-25T12:24:36.305Z,28.20
2018-06-25T12:27:10.525Z,33.03
2018-06-25T12:29:46.427Z,29.27
2018-06-25T12:32:19.458Z,23.90
2018-06-25T12:35:00.154Z,22.53
2018-06-25T12:37:39.769Z,24.10
2018-06-25T12:40:15.752Z,30.83
2018-06-25T12:42:52.014Z,26.07
2018-06-25T12:45:28.678Z,30.57
2018-06-25T12:48:08.774Z,29.77
2018-06-25T12:50:39.495Z,30.43
2018-06-25T12:53:24.532Z,32.37
2018-06-25T12:56:11.750Z,31.00
2018-06-25T12:59:09.466Z,31.10
2018-06-25T13:01:50.846Z,30.17
2018-06-25T13:04:39.450Z,28.57
2018-06-25T13:07:29.133Z,28.63
2018-06-25T13:10:15.679Z,25.90
2018-06-25T13:12:57.021Z,31.87
2018-06-25T13:15:36.636Z,28.13
2018-06-25T13:18:15.994Z,29.27
2018-06-25T13:20:55.281Z,29.07
2018-06-25T13:23:34.431Z,27.97
2018-06-25T13:26:14.549Z,28.83
2018-06-25T13:28:46.369Z,27.73
2018-06-25T13:31:39.535Z,26.48
2018-06-25T13:34:15.818Z,29.77
2018-06-25T13:36:47.377Z,28.33
2018-06-25T13:39:23.343Z,25.60
2018-06-25T13:41:58.322Z,29.53
2018-06-25T13:44:32.918Z,26.57
2018-06-25T13:47:10.374Z,29.05
2018-06-25T13:49:44.503Z,25.13
2018-06-25T13:52:23.726Z,22.80
2018-06-25T13:54:56.709Z,20.13
2018-06-25T13:57:34.292Z,18.10
2018-06-25T14:00:14.083Z,17.47
2018-06-25T14:05:28.153Z,18.07
2018-06-25T14:08:07.162Z,16.25
2018-06-25T14:10:41.437Z,18.60
2018-06-25T14:13:34.119Z,16.03
2018-06-25T14:16:10.187Z,12.97
2018-06-25T14:18:51.854Z,14.20
2018-06-25T14:21:29.873Z,11.90
2018-06-25T14:24:11.696Z,13.10
2018-06-25T14:26:47.097Z,8.70
2018-06-25T14:29:39.528Z,11.57
2018-06-25T14:32:20.528Z,8.13
2018-06-25T14:35:06.091Z,7.93
2018-06-25T14:37:46.165Z,10.10
2018-06-25T14:40:18.419Z,8.57
2018-06-25T14:42:48.514Z,13.27
2018-06-25T14:45:19.353Z,8.10
2018-06-25T14:47:57.702Z,8.27
2018-06-25T14:50:28.593Z,10.80
2018-06-25T14:53:15.668Z,6.93
2018-06-25T14:55:47.781Z,10.83
2018-06-25T14:58:17.821Z,13.20
2018-06-25T15:03:29.378Z,6.07
2018-06-25T15:06:05.076Z,7.20
2018-06-25T15:08:38.284Z,7.10
2018-06-25T15:11:11.679Z,9.10
2018-06-25T15:13:44.389Z,10.13
2018-06-25T15:16:15.977Z,7.97
2018-06-25T15:18:47.439Z,10.80
2018-06-25T15:21:20.863Z,8.13
2018-06-25T15:23:54.534Z,6.77
2018-06-25T15:26:31.186Z,8.70
2018-06-25T15:29:11.835Z,6.13
2018-06-25T15:32:14.416Z,6.53
2018-06-25T15:34:48.726Z,9.10
2018-06-25T15:37:21.157Z,7.50
2018-06-25T15:39:54.457Z,6.63
2018-06-25T15:42:32.519Z,5.93
2018-06-25T15:45:13.820Z,6.73
2018-06-25T15:47:44.645Z,6.10
2018-06-25T15:50:19.393Z,4.57
2018-06-25T15:52:55.962Z,5.70
2018-06-25T15:55:35.077Z,6.83
2018-06-25T15:58:12.091Z,5.93
2018-06-25T16:00:44.834Z,6.00
2018-06-25T16:03:15.358Z,5.53
2018-06-25T16:05:47.768Z,6.20
2018-06-25T16:08:24.235Z,6.27
2018-06-25T16:10:54.881Z,6.70
2018-06-25T16:13:27.565Z,5.20
2018-06-25T16:18:44.167Z,3.43
2018-06-25T16:21:19.837Z,6.93
2018-06-25T16:23:51.949Z,6.37
2018-06-25T16:26:24.385Z,6.30
2018-06-25T16:28:59.565Z,3.80
2018-06-25T16:32:06.341Z,4.53
2018-06-25T16:34:49.779Z,4.60
2018-06-25T16:40:17.913Z,6.10
2018-06-25T16:42:52.493Z,6.10
2018-06-25T16:45:27.029Z,5.33
2018-06-25T16:48:04.952Z,6.30
2018-06-25T16:50:44.860Z,5.97
2018-06-25T16:53:20.091Z,3.67
2018-06-25T16:55:52.935Z,6.60
2018-06-25T16:58:28.466Z,6.60
2018-06-25T17:01:39.263Z,7.47
2018-06-25T17:04:12.445Z,9.97
2018-06-25T17:06:47.396Z,8.70
2018-06-25T17:09:19.472Z,7.20
2018-06-25T17:11:51.693Z,6.43
2018-06-25T17:14:25.776Z,5.23
2018-06-25T17:16:57.456Z,8.47
2018-06-25T17:19:30.254Z,6.43
2018-06-25T17:22:04.288Z,6.10
2018-06-25T17:24:38.375Z,8.47
2018-06-25T17:27:17.942Z,7.93
2018-06-25T17:29:53.367Z,6.70
2018-06-25T17:32:32.780Z,8.30
2018-06-25T17:35:09.277Z,7.27
2018-06-25T17:37:48.482Z,7.33
2018-06-25T17:40:23.798Z,6.13
2018-06-25T17:42:58.097Z,6.37
2018-06-25T17:45:39.829Z,6.50
2018-06-25T17:48:29.665Z,9.73
2018-06-25T17:51:05.545Z,7.37
2018-06-25T17:53:39.332Z,7.77
2018-06-25T17:56:17.759Z,6.80
2018-06-25T17:58:57.778Z,8.80
2018-06-25T18:01:31.106Z,8.33
2018-06-25T18:04:06.445Z,7.43
2018-06-25T18:06:39.157Z,6.60
2018-06-25T18:09:17.500Z,8.27
2018-06-25T18:11:54.632Z,8.10
2018-06-25T18:15:13.693Z,8.77
2018-06-25T18:17:56.673Z,8.47
2018-06-25T18:20:32.591Z,7.07
2018-06-25T18:23:11.660Z,12.07
2018-06-25T18:26:12.074Z,7.03
2018-06-25T18:28:47.215Z,7.30
2018-06-25T18:34:21.998Z,7.10
2018-06-25T18:36:55.653Z,7.37
2018-06-25T18:39:30.619Z,6.63
2018-06-25T18:42:06.458Z,8.97
2018-06-25T18:44:38.707Z,6.43
2018-06-25T18:47:16.788Z,5.23
2018-06-25T18:49:54.046Z,6.77
2018-06-25T18:52:29.473Z,9.17
2018-06-25T18:55:04.071Z,5.53
2018-06-25T18:57:45.022Z,8.93
2018-06-25T19:00:23.448Z,7.03
2018-06-25T19:02:58.255Z,7.63
2018-06-25T19:05:28.898Z,4.43
2018-06-25T19:08:03.014Z,4.87
2018-06-25T19:10:35.049Z,6.27
2018-06-25T19:13:10.265Z,6.60
2018-06-25T19:15:48.631Z,5.27
2018-06-25T19:18:25.806Z,4.63
2018-06-25T19:20:59.099Z,5.60
2018-06-25T19:23:31.812Z,9.00
2018-06-25T19:26:04.977Z,5.57
2018-06-25T19:28:37.602Z,8.23
2018-06-25T19:31:14.371Z,6.93
2018-06-25T19:33:53.594Z,4.33
2018-06-25T19:36:31.473Z,6.07
2018-06-25T19:39:06.603Z,7.27
2018-06-25T19:41:46.260Z,7.10
2018-06-25T19:44:20.248Z,8.07
2018-06-25T19:46:52.354Z,9.90
2018-06-25T19:49:23.785Z,5.33
2018-06-25T19:51:56.659Z,7.07
2018-06-25T19:54:43.298Z,6.93
2018-06-25T19:57:14.747Z,9.27
2018-06-25T19:59:56.949Z,5.53
2018-06-25T20:02:35.795Z,6.17
2018-06-25T20:05:16.966Z,4.37
2018-06-25T20:07:54.776Z,5.93
2018-06-25T20:10:35.472Z,6.70
2018-06-25T20:13:10.474Z,8.53
2018-06-25T20:15:45.819Z,9.17
2018-06-25T20:18:27.338Z,7.93
2018-06-25T20:21:05.717Z,7.63
2018-06-25T20:23:41.624Z,7.40
2018-06-25T20:26:22.194Z,6.93
2018-06-25T20:28:56.384Z,4.23
2018-06-25T20:34:56.545Z,7.07
2018-06-25T20:37:35.728Z,10.20
2018-06-25T20:40:15.225Z,8.53
2018-06-25T20:43:02.936Z,6.67
2018-06-25T20:45:35.620Z,8.83
2018-06-25T20:48:15.431Z,8.63
2018-06-25T20:50:46.454Z,5.37
2018-06-25T20:53:19.914Z,5.37
2018-06-25T20:56:02.483Z,4.63
2018-06-25T20:58:42.590Z,8.00
2018-06-25T21:01:15.648Z,6.57
2018-06-25T21:03:51.753Z,7.40
2018-06-25T21:06:30.694Z,6.77
2018-06-25T21:09:07.429Z,7.83
2018-06-25T21:11:50.673Z,4.77
2018-06-25T21:14:23.490Z,5.93
2018-06-25T21:16:55.930Z,9.77
2018-06-25T21:19:47.534Z,5.63
2018-06-25T21:22:19.622Z,7.03
2018-06-25T21:24:55.877Z,7.33
2018-06-25T21:27:32.679Z,7.13
2018-06-25T21:30:27.348Z,9.50
2018-06-25T21:33:02.590Z,4.53
2018-06-25T21:35:36.256Z,6.33
2018-06-25T21:38:09.610Z,7.73
2018-06-25T21:40:41.848Z,7.27
2018-06-25T21:43:12.772Z,5.57
2018-06-25T21:45:56.938Z,7.60
2018-06-25T21:48:30.259Z,4.93
2018-06-25T21:51:02.961Z,8.57
2018-06-25T21:53:39.218Z,4.90
2018-06-25T21:56:09.830Z,6.60
2018-06-25T21:58:43.941Z,6.87
2018-06-25T22:01:24.963Z,6.33
2018-06-25T22:03:56.861Z,6.23
2018-06-25T22:06:32.731Z,5.87
2018-06-25T22:09:14.460Z,5.63
2018-06-25T22:11:47.895Z,5.57
2018-06-25T22:14:21.218Z,5.27
2018-06-25T22:16:58.050Z,6.90
2018-06-25T22:19:31.541Z,6.47
2018-06-25T22:22:06.978Z,10.23
2018-06-25T22:24:41.017Z,9.00
2018-06-25T22:27:12.843Z,6.87
2018-06-25T22:29:55.518Z,4.90
2018-06-25T22:32:30.000Z,6.57
2018-06-25T22:35:06.999Z,6.00
2018-06-25T22:37:38.687Z,7.43
2018-06-25T22:40:13.750Z,4.97
2018-06-25T22:42:47.786Z,8.73
2018-06-25T22:45:32.055Z,6.03
2018-06-25T22:48:15.120Z,8.23
2018-06-25T22:50:50.903Z,8.17
2018-06-25T22:53:26.558Z,6.57
2018-06-25T22:55:59.397Z,6.17
2018-06-25T22:58:37.603Z,6.90
2018-06-25T23:01:14.190Z,8.83
2018-06-25T23:03:46.288Z,7.83
2018-06-25T23:06:20.185Z,7.03
2018-06-25T23:08:55.883Z,8.83
2018-06-25T23:11:31.589Z,9.33
2018-06-25T23:14:05.990Z,5.23
2018-06-25T23:16:41.696Z,6.17
2018-06-25T23:19:12.270Z,8.77
2018-06-25T23:21:43.467Z,5.97
2018-06-25T23:24:19.802Z,5.00
2018-06-25T23:26:56.492Z,6.90
2018-06-25T23:29:28.686Z,5.30
2018-06-25T23:32:08.510Z,7.00
2018-06-25T23:34:41.623Z,5.93
2018-06-25T23:37:14.636Z,4.77
2018-06-25T23:39:45.594Z,5.40
2018-06-25T23:42:17.446Z,7.00
2018-06-25T23:44:49.677Z,6.77
2018-06-25T23:50:13.818Z,6.53
2018-06-25T23:52:45.007Z,7.03
2018-06-25T23:55:38.598Z,9.33
2018-06-25T23:58:12.473Z,7.27
